createdAt,value
2018-01-20T00:00:47.574Z,2.60
2018-01-20T00:03:15.194Z,2.60
2018-01-20T00:05:42.781Z,2.60
2018-01-20T00:08:10.366Z,2.50
2018-01-20T00:10:49.756Z,2.30
2018-01-20T00:13:17.359Z,2.20
2018-01-20T00:15:44.963Z,2.10
2018-01-20T00:18:12.670Z,2.00
2018-01-20T00:20:40.288Z,2.00
2018-01-20T00:23:08.644Z,1.90
2018-01-20T00:25:36.252Z,1.90
2018-01-20T00:28:03.829Z,1.90
2018-01-20T00:30:31.492Z,1.90
2018-01-20T00:32:59.086Z,1.90
2018-01-20T00:35:26.669Z,1.90
2018-01-20T00:37:54.267Z,1.90
2018-01-20T00:40:22.663Z,1.80
2018-01-20T00:42:50.272Z,1.80
2018-01-20T00:45:17.947Z,1.80
2018-01-20T00:50:24.827Z,1.70
2018-01-20T00:52:52.415Z,1.70
2018-01-20T00:55:21.547Z,1.70
2018-01-20T00:57:49.883Z,1.70
2018-01-20T01:00:17.483Z,1.70
2018-01-20T01:02:45.949Z,1.70
2018-01-20T01:05:13.537Z,1.60
2018-01-20T01:07:41.911Z,1.70
2018-01-20T01:10:09.639Z,1.70
2018-01-20T01:12:37.597Z,1.70
2018-01-20T01:15:05.355Z,1.70
2018-01-20T01:17:32.950Z,1.70
2018-01-20T01:20:00.597Z,1.70
2018-01-20T01:22:28.184Z,1.70
2018-01-20T01:24:55.806Z,1.70
2018-01-20T01:27:24.160Z,1.70
2018-01-20T01:29:51.756Z,1.70
2018-01-20T01:32:19.372Z,1.70
2018-01-20T01:34:46.970Z,1.70
2018-01-20T01:37:15.342Z,1.70
2018-01-20T01:39:42.940Z,1.70
2018-01-20T01:42:10.566Z,1.70
2018-01-20T01:44:38.134Z,1.70
2018-01-20T01:47:05.730Z,1.70
2018-01-20T01:49:33.330Z,1.70
2018-01-20T01:52:00.921Z,1.70
2018-01-20T01:54:28.531Z,1.60
2018-01-20T01:56:56.110Z,1.60
2018-01-20T01:59:23.694Z,1.60
2018-01-20T02:01:51.301Z,1.60
2018-01-20T02:04:18.904Z,1.60
2018-01-20T02:06:46.540Z,1.50
2018-01-20T02:09:14.899Z,1.50
2018-01-20T02:11:42.488Z,1.50
2018-01-20T02:14:10.854Z,1.50
2018-01-20T02:16:39.309Z,1.50
2018-01-20T02:19:07.070Z,1.50
2018-01-20T02:21:34.682Z,1.40
2018-01-20T02:24:03.064Z,1.40
2018-01-20T02:26:31.445Z,1.40
2018-01-20T02:28:59.817Z,1.40
2018-01-20T02:31:27.425Z,1.30
2018-01-20T02:33:55.011Z,1.30
2018-01-20T02:36:22.787Z,1.30
2018-01-20T02:38:50.411Z,1.30
2018-01-20T02:41:18.759Z,1.30
2018-01-20T02:43:46.388Z,1.20
2018-01-20T02:46:13.971Z,1.30
2018-01-20T02:48:41.839Z,1.20
2018-01-20T02:51:09.426Z,1.10
2018-01-20T02:53:37.014Z,1.10
2018-01-20T02:56:04.615Z,1.10
2018-01-20T02:58:32.201Z,1.10
2018-01-20T03:00:59.793Z,1.00
2018-01-20T03:03:27.375Z,1.00
2018-01-20T03:05:55.765Z,1.00
2018-01-20T03:08:24.122Z,1.00
2018-01-20T03:10:52.069Z,1.00
2018-01-20T03:13:19.654Z,1.10
2018-01-20T03:15:47.239Z,1.00
2018-01-20T03:18:15.622Z,1.10
2018-01-20T03:20:43.230Z,1.00
2018-01-20T03:23:10.868Z,1.10
2018-01-20T03:25:39.234Z,1.10
2018-01-20T03:28:06.828Z,1.10
2018-01-20T03:30:34.455Z,1.10
2018-01-20T03:33:02.038Z,1.10
2018-01-20T03:35:30.776Z,1.10
2018-01-20T03:37:58.358Z,1.10
2018-01-20T03:40:25.978Z,1.10
2018-01-20T03:42:54.383Z,1.10
2018-01-20T03:45:21.966Z,1.10
2018-01-20T03:47:49.588Z,1.10
2018-01-20T03:50:17.926Z,1.20
2018-01-20T03:52:45.527Z,1.20
2018-01-20T03:55:13.900Z,1.20
2018-01-20T03:57:41.492Z,1.20
2018-01-20T04:00:09.857Z,1.20
2018-01-20T04:02:38.222Z,1.20
2018-01-20T04:05:07.363Z,1.20
2018-01-20T04:07:34.969Z,1.20
2018-01-20T04:10:02.596Z,1.20
2018-01-20T04:12:30.192Z,1.20
2018-01-20T04:14:57.777Z,1.20
2018-01-20T04:17:25.404Z,1.30
2018-01-20T04:19:53.020Z,1.30
2018-01-20T04:22:20.640Z,1.30
2018-01-20T04:24:48.230Z,1.30
2018-01-20T04:27:15.839Z,1.20
2018-01-20T04:29:44.203Z,1.20
2018-01-20T04:32:12.553Z,1.20
2018-01-20T04:34:40.175Z,1.20
2018-01-20T04:37:08.601Z,1.20
2018-01-20T04:39:36.397Z,1.20
2018-01-20T04:42:03.985Z,1.20
2018-01-20T04:44:32.337Z,1.10
2018-01-20T04:47:00.023Z,1.10
2018-01-20T04:49:27.613Z,1.00
2018-01-20T04:51:55.260Z,1.00
2018-01-20T04:54:23.617Z,0.90
2018-01-20T04:56:51.202Z,0.90
2018-01-20T04:59:19.569Z,0.90
2018-01-20T05:01:48.731Z,0.90
2018-01-20T05:04:16.705Z,0.90
2018-01-20T05:06:44.291Z,0.90
2018-01-20T05:09:12.029Z,0.90
2018-01-20T05:11:39.622Z,0.90
2018-01-20T05:14:07.206Z,0.90
2018-01-20T05:16:34.846Z,1.00
2018-01-20T05:19:02.455Z,1.10
2018-01-20T05:21:30.050Z,1.10
2018-01-20T05:23:57.998Z,1.10
2018-01-20T05:26:25.585Z,1.10
2018-01-20T05:28:53.211Z,1.10
2018-01-20T05:31:20.798Z,1.00
2018-01-20T05:33:49.310Z,1.00
2018-01-20T05:36:17.030Z,1.00
2018-01-20T05:38:46.126Z,0.90
2018-01-20T05:41:14.793Z,0.90
2018-01-20T05:43:42.372Z,0.90
2018-01-20T05:46:10.414Z,0.90
2018-01-20T05:48:38.008Z,0.80
2018-01-20T05:51:05.590Z,0.80
2018-01-20T05:53:33.246Z,0.80
2018-01-20T05:56:00.859Z,0.90
2018-01-20T05:58:29.569Z,0.80
2018-01-20T06:00:57.153Z,0.80
2018-01-20T06:03:24.850Z,0.80
2018-01-20T06:05:52.490Z,0.90
2018-01-20T06:08:20.095Z,0.90
2018-01-20T06:10:48.506Z,0.80
2018-01-20T06:13:16.133Z,0.80
2018-01-20T06:15:44.489Z,0.90
2018-01-20T06:18:12.125Z,0.80
2018-01-20T06:20:39.689Z,0.90
2018-01-20T06:23:07.298Z,0.90
2018-01-20T06:25:35.239Z,0.90
2018-01-20T06:28:02.828Z,0.90
2018-01-20T06:30:30.407Z,0.90
2018-01-20T06:32:58.027Z,0.80
2018-01-20T06:35:25.726Z,0.80
2018-01-20T06:37:53.432Z,0.80
2018-01-20T06:40:21.790Z,0.90
2018-01-20T06:42:49.367Z,0.80
2018-01-20T06:45:16.991Z,0.80
2018-01-20T06:47:44.603Z,0.80
2018-01-20T06:50:13.139Z,0.90
2018-01-20T06:52:40.747Z,0.80
2018-01-20T06:55:08.364Z,0.80
2018-01-20T06:57:35.973Z,0.70
2018-01-20T07:00:04.331Z,0.70
2018-01-20T07:02:31.944Z,0.70
2018-01-20T07:05:00.305Z,0.70
2018-01-20T07:07:27.902Z,0.70
2018-01-20T07:09:56.249Z,0.80
2018-01-20T07:12:24.644Z,0.80
2018-01-20T07:14:53.745Z,0.70
2018-01-20T07:17:21.356Z,0.70
2018-01-20T07:19:48.985Z,0.70
2018-01-20T07:22:17.713Z,0.70
2018-01-20T07:24:45.326Z,0.70
2018-01-20T07:27:13.688Z,0.70
2018-01-20T07:29:41.296Z,0.70
2018-01-20T07:32:09.652Z,0.80
2018-01-20T07:34:37.278Z,0.80
2018-01-20T07:37:04.868Z,0.90
2018-01-20T07:39:32.512Z,1.00
2018-01-20T07:42:00.107Z,1.10
2018-01-20T07:44:27.693Z,1.20
2018-01-20T07:46:56.124Z,1.40
2018-01-20T07:49:24.460Z,1.40
2018-01-20T07:51:52.860Z,1.50
2018-01-20T07:54:21.394Z,1.70
2018-01-20T07:56:48.986Z,1.70
2018-01-20T07:59:17.366Z,2.30
2018-01-20T08:01:44.961Z,2.30
2018-01-20T08:04:13.357Z,2.70
2018-01-20T08:06:40.990Z,2.70
2018-01-20T08:09:08.626Z,2.80
2018-01-20T08:11:36.243Z,2.90
2018-01-20T08:14:04.690Z,2.90
2018-01-20T08:16:32.283Z,2.90
2018-01-20T08:19:00.684Z,2.80
2018-01-20T08:21:29.088Z,2.70
2018-01-20T08:23:56.671Z,2.70
2018-01-20T08:26:24.278Z,2.60
2018-01-20T08:28:51.857Z,2.50
2018-01-20T08:31:20.239Z,2.30
2018-01-20T08:33:48.655Z,2.20
2018-01-20T08:36:16.307Z,2.20
2018-01-20T08:38:44.705Z,2.10
2018-01-20T08:41:12.428Z,2.00
2018-01-20T08:43:40.843Z,2.00
2018-01-20T08:46:08.484Z,1.90
2018-01-20T08:48:36.857Z,1.90
2018-01-20T08:51:04.497Z,1.90
2018-01-20T08:53:32.103Z,1.90
2018-01-20T08:56:00.517Z,2.10
2018-01-20T08:58:28.135Z,2.00
2018-01-20T09:00:56.489Z,2.10
2018-01-20T09:03:24.161Z,2.10
2018-01-20T09:05:51.829Z,2.10
2018-01-20T09:08:19.553Z,2.10
2018-01-20T09:10:47.154Z,2.10
2018-01-20T09:13:15.006Z,2.10
2018-01-20T09:15:42.618Z,2.20
2018-01-20T09:18:10.974Z,2.20
2018-01-20T09:20:38.611Z,2.20
2018-01-20T09:23:06.193Z,2.10
2018-01-20T09:25:33.845Z,2.10
2018-01-20T09:28:01.468Z,2.10
2018-01-20T09:30:29.102Z,2.00
2018-01-20T09:32:56.758Z,2.00
2018-01-20T09:35:24.396Z,1.90
2018-01-20T09:37:52.089Z,1.90
2018-01-20T09:40:19.721Z,1.80
2018-01-20T09:42:48.150Z,1.80
2018-01-20T09:45:15.734Z,1.80
2018-01-20T09:47:43.342Z,1.80
2018-01-20T09:50:10.950Z,1.70
2018-01-20T09:52:38.545Z,1.70
2018-01-20T09:55:06.389Z,1.70
2018-01-20T09:57:34.029Z,1.70
2018-01-20T10:00:01.657Z,1.70
2018-01-20T10:02:30.032Z,1.80
2018-01-20T10:04:57.610Z,1.80
2018-01-20T10:07:26.080Z,1.80
2018-01-20T10:09:53.676Z,1.80
2018-01-20T10:12:22.078Z,1.80
2018-01-20T10:14:49.673Z,1.80
2018-01-20T10:17:17.265Z,1.90
2018-01-20T10:19:44.889Z,1.90
2018-01-20T10:22:12.534Z,1.90
2018-01-20T10:24:40.142Z,2.00
2018-01-20T10:27:07.767Z,2.00
2018-01-20T10:29:35.364Z,2.10
2018-01-20T10:32:02.948Z,2.10
2018-01-20T10:34:31.323Z,2.10
2018-01-20T10:37:00.463Z,2.20
2018-01-20T10:39:28.844Z,2.20
2018-01-20T10:41:57.823Z,2.20
2018-01-20T10:44:25.451Z,2.20
2018-01-20T10:46:53.087Z,2.20
2018-01-20T10:49:20.695Z,2.30
2018-01-20T10:51:48.334Z,2.30
2018-01-20T10:54:15.948Z,2.30
2018-01-20T10:56:45.341Z,2.40
2018-01-20T10:59:12.941Z,2.40
2018-01-20T11:01:41.308Z,2.50
2018-01-20T11:04:09.689Z,2.60
2018-01-20T11:06:38.079Z,2.60
2018-01-20T11:09:06.504Z,2.70
2018-01-20T11:11:34.101Z,2.70
2018-01-20T11:14:01.715Z,2.80
2018-01-20T11:16:30.189Z,3.00
2018-01-20T11:18:58.650Z,3.10
2018-01-20T11:21:27.044Z,3.20
2018-01-20T11:23:55.422Z,3.20
2018-01-20T11:26:24.668Z,3.30
2018-01-20T11:28:52.256Z,3.30
2018-01-20T11:31:19.860Z,3.30
2018-01-20T11:33:47.482Z,3.30
2018-01-20T11:36:15.190Z,3.40
2018-01-20T11:38:42.804Z,3.40
2018-01-20T11:41:10.372Z,3.40
2018-01-20T11:43:38.043Z,3.50
2018-01-20T11:46:05.642Z,3.50
2018-01-20T11:48:33.240Z,3.50
2018-01-20T11:51:01.622Z,3.50
2018-01-20T11:53:29.459Z,3.50
2018-01-20T11:55:57.264Z,3.60
2018-01-20T11:58:24.890Z,3.60
2018-01-20T12:00:54.047Z,3.60
2018-01-20T12:03:21.648Z,3.60
2018-01-20T12:05:49.307Z,3.60
2018-01-20T12:08:16.935Z,3.60
2018-01-20T12:10:45.305Z,3.60
2018-01-20T12:13:13.688Z,3.60
2018-01-20T12:15:42.049Z,3.50
2018-01-20T12:18:10.409Z,3.50
2018-01-20T12:20:38.032Z,3.50
2018-01-20T12:23:05.653Z,3.50
2018-01-20T12:25:33.263Z,3.50
2018-01-20T12:28:01.667Z,3.50
2018-01-20T12:30:29.319Z,3.50
2018-01-20T12:32:56.939Z,3.50
2018-01-20T12:35:25.315Z,3.50
2018-01-20T12:37:52.959Z,3.50
2018-01-20T12:40:20.556Z,3.50
2018-01-20T12:42:48.251Z,3.50
2018-01-20T12:45:16.660Z,3.60
2018-01-20T12:47:44.324Z,3.50
2018-01-20T12:50:11.999Z,3.60
2018-01-20T12:52:39.763Z,3.60
2018-01-20T12:55:07.419Z,3.60
2018-01-20T12:57:35.043Z,3.70
2018-01-20T13:00:02.938Z,3.70
2018-01-20T13:02:31.359Z,4.40
2018-01-20T13:04:59.716Z,4.90
2018-01-20T13:07:28.107Z,4.80
2018-01-20T13:09:55.730Z,4.80
2018-01-20T13:12:25.066Z,4.40
2018-01-20T13:14:53.462Z,4.20
2018-01-20T13:17:21.062Z,4.20
2018-01-20T13:19:48.777Z,4.10
2018-01-20T13:22:17.241Z,3.80
2018-01-20T13:24:44.890Z,3.80
2018-01-20T13:27:12.486Z,3.70
2018-01-20T13:29:40.094Z,3.60
2018-01-20T13:32:07.702Z,3.50
2018-01-20T13:34:35.322Z,3.50
2018-01-20T13:37:03.013Z,3.50
2018-01-20T13:39:30.614Z,3.40
2018-01-20T13:41:58.251Z,3.50
2018-01-20T13:44:25.853Z,3.50
2018-01-20T13:46:54.246Z,3.50
2018-01-20T13:49:22.599Z,3.70
2018-01-20T13:51:51.786Z,3.70
2018-01-20T13:54:19.400Z,3.70
2018-01-20T13:56:48.030Z,3.70
2018-01-20T13:59:15.618Z,3.60
2018-01-20T14:01:43.243Z,3.60
2018-01-20T14:04:10.863Z,3.60
2018-01-20T14:06:39.229Z,3.60
2018-01-20T14:09:07.739Z,3.60
2018-01-20T14:11:36.141Z,3.60
2018-01-20T14:14:03.821Z,3.50
2018-01-20T14:16:31.447Z,3.60
2018-01-20T14:18:59.043Z,3.60
2018-01-20T14:21:26.661Z,3.60
2018-01-20T14:23:54.279Z,3.70
2018-01-20T14:26:21.930Z,3.70
2018-01-20T14:28:50.321Z,3.80
2018-01-20T14:31:18.689Z,3.70
2018-01-20T14:33:47.079Z,3.70
2018-01-20T14:36:15.467Z,3.60
2018-01-20T14:38:43.281Z,3.60
2018-01-20T14:41:10.888Z,3.50
2018-01-20T14:43:39.274Z,3.50
2018-01-20T14:46:07.686Z,3.50
2018-01-20T14:48:35.557Z,3.50
2018-01-20T14:51:04.585Z,3.60
2018-01-20T14:53:32.244Z,3.60
2018-01-20T14:55:59.887Z,3.60
2018-01-20T14:58:27.613Z,3.50
2018-01-20T15:00:55.431Z,3.40
2018-01-20T15:03:23.127Z,3.30
2018-01-20T15:05:50.832Z,3.20
2018-01-20T15:08:19.630Z,3.20
2018-01-20T15:10:48.148Z,3.10
2018-01-20T15:13:15.916Z,3.10
2018-01-20T15:15:43.534Z,3.00
2018-01-20T15:18:11.132Z,3.10
2018-01-20T15:20:38.747Z,3.20
2018-01-20T15:23:06.376Z,3.20
2018-01-20T15:25:34.019Z,3.10
2018-01-20T15:28:02.391Z,2.90
2018-01-20T15:30:29.988Z,2.90
2018-01-20T15:32:57.782Z,2.80
2018-01-20T15:35:25.424Z,2.60
2018-01-20T15:37:53.082Z,2.50
2018-01-20T15:40:20.690Z,2.40
2018-01-20T15:42:48.335Z,2.30
2018-01-20T15:45:16.093Z,2.30
2018-01-20T15:47:44.131Z,2.20
2018-01-20T15:50:12.528Z,2.20
2018-01-20T15:52:40.926Z,2.20
2018-01-20T15:55:08.561Z,2.20
2018-01-20T15:57:36.185Z,2.20
2018-01-20T16:00:03.818Z,2.20
2018-01-20T16:02:32.173Z,2.20
2018-01-20T16:05:00.614Z,2.20
2018-01-20T16:07:28.245Z,2.20
2018-01-20T16:09:56.122Z,2.30
2018-01-20T16:12:23.847Z,2.30
2018-01-20T16:14:52.295Z,2.20
2018-01-20T16:17:19.987Z,2.20
2018-01-20T16:19:47.632Z,2.20
2018-01-20T16:22:15.288Z,2.30
2018-01-20T16:24:43.266Z,2.20
2018-01-20T16:27:10.947Z,2.20
2018-01-20T16:29:39.066Z,2.20
2018-01-20T16:32:08.225Z,2.10
2018-01-20T16:34:35.889Z,2.10
2018-01-20T16:37:03.599Z,2.10
2018-01-20T16:39:31.331Z,2.10
2018-01-20T16:41:59.053Z,2.20
2018-01-20T16:44:27.486Z,2.20
2018-01-20T16:46:55.150Z,2.20
2018-01-20T16:49:22.867Z,2.10
2018-01-20T16:51:51.395Z,2.10
2018-01-20T16:54:19.167Z,2.10
2018-01-20T16:56:46.820Z,2.10
2018-01-20T16:59:14.494Z,2.10
2018-01-20T17:01:42.214Z,2.20
2018-01-20T17:04:09.856Z,2.20
2018-01-20T17:06:37.570Z,2.20
2018-01-20T17:09:05.985Z,2.30
2018-01-20T17:11:33.726Z,2.20
2018-01-20T17:14:02.156Z,2.20
2018-01-20T17:16:29.819Z,2.20
2018-01-20T17:18:57.544Z,2.20
2018-01-20T17:21:25.149Z,2.20
2018-01-20T17:23:52.832Z,2.20
2018-01-20T17:26:21.158Z,2.20
2018-01-20T17:28:48.814Z,2.10
2018-01-20T17:31:17.251Z,2.10
2018-01-20T17:33:44.893Z,2.10
2018-01-20T17:36:12.708Z,2.20
2018-01-20T17:38:40.385Z,2.30
2018-01-20T17:41:09.028Z,2.40
2018-01-20T17:43:36.624Z,2.40
2018-01-20T17:46:04.441Z,2.40
2018-01-20T17:48:32.846Z,2.30
2018-01-20T17:51:00.472Z,2.30
2018-01-20T17:53:28.118Z,2.40
2018-01-20T17:55:55.729Z,2.40
2018-01-20T17:58:23.401Z,2.40
2018-01-20T18:00:51.122Z,2.30
2018-01-20T18:03:18.772Z,2.20
2018-01-20T18:05:46.755Z,2.20
2018-01-20T18:08:14.437Z,2.20
2018-01-20T18:10:42.629Z,2.10
2018-01-20T18:13:11.074Z,2.20
2018-01-20T18:15:38.701Z,2.10
2018-01-20T18:18:06.378Z,2.10
2018-01-20T18:20:34.006Z,2.10
2018-01-20T18:23:01.617Z,2.10
2018-01-20T18:25:29.269Z,2.10
2018-01-20T18:27:56.918Z,2.00
2018-01-20T18:30:25.362Z,2.00
2018-01-20T18:32:53.017Z,2.00
2018-01-20T18:35:20.673Z,1.90
2018-01-20T18:37:48.584Z,1.90
2018-01-20T18:40:16.205Z,1.90
2018-01-20T18:42:43.828Z,1.80
2018-01-20T18:45:12.957Z,1.70
2018-01-20T18:47:40.632Z,1.70
2018-01-20T18:50:08.294Z,1.70
2018-01-20T18:52:35.928Z,1.60
2018-01-20T18:55:04.329Z,1.50
2018-01-20T18:57:32.706Z,1.50
2018-01-20T19:00:01.141Z,1.50
2018-01-20T19:02:28.838Z,1.40
2018-01-20T19:04:56.647Z,1.50
2018-01-20T19:07:24.344Z,1.50
2018-01-20T19:09:52.008Z,1.40
2018-01-20T19:12:19.680Z,1.40
2018-01-20T19:14:47.276Z,1.40
2018-01-20T19:17:16.383Z,1.40
2018-01-20T19:19:44.034Z,1.40
2018-01-20T19:22:11.688Z,1.30
2018-01-20T19:24:39.333Z,1.20
2018-01-20T19:27:07.024Z,1.20
2018-01-20T19:29:34.712Z,1.20
2018-01-20T19:32:02.395Z,1.20
2018-01-20T19:34:30.845Z,1.20
2018-01-20T19:36:58.658Z,1.20
2018-01-20T19:39:27.083Z,1.20
2018-01-20T19:41:54.762Z,1.20
2018-01-20T19:44:22.911Z,1.20
2018-01-20T19:46:50.575Z,1.20
2018-01-20T19:49:18.357Z,1.20
2018-01-20T19:51:46.758Z,1.30
2018-01-20T19:54:14.498Z,1.30
2018-01-20T19:56:42.160Z,1.30
2018-01-20T19:59:09.997Z,1.30
2018-01-20T20:01:38.460Z,1.20
2018-01-20T20:04:07.327Z,1.20
2018-01-20T20:06:35.010Z,1.20
2018-01-20T20:09:02.672Z,1.20
2018-01-20T20:11:30.605Z,1.20
2018-01-20T20:13:58.400Z,1.20
2018-01-20T20:16:26.213Z,1.20
2018-01-20T20:18:54.017Z,1.20
2018-01-20T20:21:21.760Z,1.20
2018-01-20T20:23:50.250Z,1.20
2018-01-20T20:26:18.719Z,1.20
2018-01-20T20:28:48.022Z,1.20
2018-01-20T20:31:15.739Z,1.20
2018-01-20T20:33:43.438Z,1.30
2018-01-20T20:36:11.130Z,1.30
2018-01-20T20:38:39.595Z,1.30
2018-01-20T20:41:07.336Z,1.30
2018-01-20T20:43:35.036Z,1.40
2018-01-20T20:46:02.780Z,1.40
2018-01-20T20:48:30.655Z,1.40
2018-01-20T20:50:58.334Z,1.40
2018-01-20T20:53:26.177Z,1.40
2018-01-20T20:55:53.943Z,1.40
2018-01-20T20:58:21.730Z,1.40
2018-01-20T21:00:49.444Z,1.50
2018-01-20T21:03:18.676Z,1.50
2018-01-20T21:05:46.372Z,1.50
2018-01-20T21:08:14.089Z,1.50
2018-01-20T21:10:42.552Z,1.60
2018-01-20T21:13:11.736Z,1.60
2018-01-20T21:15:39.455Z,1.60
2018-01-20T21:18:07.906Z,1.70
2018-01-20T21:20:36.654Z,1.60
2018-01-20T21:23:05.063Z,1.60
2018-01-20T21:25:32.812Z,1.60
2018-01-20T21:28:00.521Z,1.60
2018-01-20T21:30:30.642Z,1.60
2018-01-20T21:32:59.118Z,1.60
2018-01-20T21:35:26.817Z,1.60
2018-01-20T21:37:55.233Z,1.70
2018-01-20T21:40:23.206Z,1.70
2018-01-20T21:42:50.868Z,1.70
2018-01-20T21:45:18.577Z,1.70
2018-01-20T21:47:46.223Z,1.60
2018-01-20T21:50:14.231Z,1.60
2018-01-20T21:52:43.422Z,1.60
2018-01-20T21:55:12.171Z,1.60
2018-01-20T21:57:39.921Z,1.60
2018-01-20T22:00:08.307Z,1.60
2018-01-20T22:02:36.119Z,1.60
2018-01-20T22:05:03.804Z,1.70
2018-01-20T22:07:31.535Z,1.70
2018-01-20T22:09:59.208Z,1.70
2018-01-20T22:12:26.890Z,1.80
2018-01-20T22:14:54.493Z,1.80
2018-01-20T22:17:22.873Z,2.00
2018-01-20T22:19:50.546Z,1.90
2018-01-20T22:22:19.009Z,2.00
2018-01-20T22:24:47.444Z,2.00
2018-01-20T22:27:15.077Z,2.00
2018-01-20T22:29:42.751Z,2.00
2018-01-20T22:32:10.355Z,2.00
2018-01-20T22:34:37.964Z,2.00
2018-01-20T22:37:05.558Z,2.10
2018-01-20T22:39:33.956Z,2.10
2018-01-20T22:42:01.592Z,2.10
2018-01-20T22:44:29.962Z,2.30
2018-01-20T22:46:57.910Z,2.20
2018-01-20T22:49:25.512Z,2.20
2018-01-20T22:51:54.632Z,2.20
2018-01-20T22:54:22.275Z,2.20
2018-01-20T22:56:51.398Z,2.10
2018-01-20T22:59:20.070Z,2.10
2018-01-20T23:01:47.668Z,2.10
2018-01-20T23:04:15.313Z,2.20
2018-01-20T23:06:43.684Z,2.10
2018-01-20T23:09:12.054Z,2.10
2018-01-20T23:11:39.764Z,2.10
2018-01-20T23:14:07.345Z,2.10
2018-01-20T23:16:34.967Z,2.10
2018-01-20T23:19:03.347Z,2.10
2018-01-20T23:21:32.639Z,2.10
2018-01-20T23:24:00.241Z,2.10
2018-01-20T23:26:28.610Z,2.20
2018-01-20T23:28:56.238Z,2.20
2018-01-20T23:31:23.877Z,2.30
2018-01-20T23:33:51.511Z,2.30
2018-01-20T23:36:20.135Z,2.40
2018-01-20T23:38:47.761Z,2.30
2018-01-20T23:41:16.181Z,2.40
2018-01-20T23:43:43.780Z,2.40
2018-01-20T23:46:11.425Z,2.40
2018-01-20T23:48:39.015Z,2.40
2018-01-20T23:51:06.852Z,2.40
2018-01-20T23:53:34.469Z,2.40
2018-01-20T23:56:03.623Z,2.40
2018-01-20T23:58:31.239Z,2.40
